Airfield :
LOGIN :

Register | Disclaimer

   EN    FR    IT 

 










Legend :    VFR   Marginal VFR   IFR   Intensive IFR   Very Intensive IFR
Visi :
Ceiling :
>= 8 km
>= 3000ft
5 to 8 km
1000 to 3000 ft
1500m to 5 km
500 to 1000 ft
800 to 1500m
200 to 500 ft
< 800m
< 200 ft
Symbols :   Thunderstorms  Fog  Heavy snow  Heavy precipitations  Wind > 20 kt
SIGMETs :     Misc.  Thunderstorms  Icing  Turbulence  Mountain Waves  Volcanic Ashes






- Airport Elevation : 392 ft
- IATA code : CDG


LFPG - Paris-Aeroport Charles De Gaulle

CURRENT METAR :
  • 100100Z 03007KT 350V060 CAVOK 24/15 Q1014 NOSIG

EXPIRED METARs :
  • 100030Z 23003KT 160V260 CAVOK 25/14 Q1012 NOSIG
  • 100000Z 18005KT CAVOK 25/15 Q1012 NOSIG
  • 092330Z 20005KT 150V250 CAVOK 25/16 Q1012 NOSIG
  • 092300Z 09010KT 060V120 9999 -RA NSC 25/17 Q1014 NOSIG
  • 092230Z 14012KT 9999 FEW100CB SCT120 BKN150 26/16 Q1015 BECMG CAVOK

TAF TAF LFPG
Valid from the 10 at 00:00 until the 11 at 06:00 UTC


092300Z 1000/1106 10005KT CAVOK TX34/1012Z TN23/1105Z
TEMPO 1003/1009 -SHRA SCT070TCU
TEMPO 1012/1020 SCT060TCU
PROB30
TEMPO 1014/1019 TSRA SCT070CB
PROB40
TEMPO 1017/1018 23015G25KT 4000 TSRA
ATIS : +33 1 48 62 10 92



MET'MAP, your aeronautical weather chart ! - Copyright ORBIFLY December 2007 - Disclaimer

ORBIFLY MET'MAP TEAM :

Programming & Development : Alexandra Zaïnal
Concept & original design : Baudouin d'Aumeries
Assistance for programming : Marc-Olivier Méhu
Technical & hardware support : Manuel Goepfert

Contact : metmap@orbifly.com




SOURCES & CREDITS :

   NOAA